Flight Track Log - Related Links

Times and Time Zones

All times are in EDT time to prevent confusion due to time zone crossing. See the EJA922 flight status page for this flight to view local times or setup timezone preferences in your user account.

Time Position Orientation Groundspeed Altitude Reporting Facility
EDT Latitude Longitude Course Direction KTS MPH feet Rate Location/Type
Wed 05:35:37 PM 40.0833 -75.0167 229° Southwest 164 189 700  Level Philadelphia TRACON
Wed 05:36:25 PM 40.0500 -75.0667 229° Southwest 219 252 1,900 1,650 Climbing Philadelphia TRACON
Wed 05:37:37 PM 40.1167 -75.1000 339° North 261 300 4,000 2,381 Climbing Philadelphia TRACON
Wed 05:38:31 PM 40.1833 -75.1500 330° Northwest 272 313 6,900 3,048 Climbing Philadelphia TRACON
Wed 05:39:41 PM 40.1883 -75.2650 273° West 300 345 10,300 2,123 Climbing New York Center
Wed 05:40:41 PM 40.2006 -75.3800 278° West 311 358 11,500 1,300 Climbing New York Center
Wed 05:41:41 PM 40.2181 -75.5169 280° West 359 413 12,900 1,850 Climbing New York Center
Wed 05:42:41 PM 40.2658 -75.6264 300° West 380 437 15,200 2,350 Climbing New York Center
Wed 05:43:41 PM 40.3344 -75.7319 310° West 380 437 17,600 1,750 Climbing New York Center
Wed 05:44:41 PM 40.4125 -75.8522 310° West 392 451 18,700 700 Climbing New York Center
Wed 05:45:41 PM 40.4531 -75.9750 293° West 413 475 19,000 150 Climbing New York Center
Wed 05:46:41 PM 40.4811 -76.1436 282° West 423 487 19,000 250 Level New York Center
Wed 05:47:41 PM 40.5050 -76.3011 281° West 434 499 19,500 1,450 Climbing New York Center
Wed 05:48:41 PM 40.5486 -76.4386 293° West 413 475 21,900 2,100 Climbing New York Center
Wed 05:49:41 PM 40.6178 -76.5564 308° West 407 468 23,700 1,600 Climbing New York Center
Wed 05:50:41 PM 40.6783 -76.6819 302° West 407 468 25,100 1,500 Climbing New York Center
Wed 05:51:41 PM 40.6997 -76.8344 281° West 412 474 26,700 1,600 Climbing New York Center
Wed 05:52:41 PM 40.7186 -76.9922 279° West 423 487 28,300 1,650 Climbing New York Center
Wed 05:53:41 PM 40.7375 -77.1500 279° West 434 499 30,000 1,550 Climbing New York Center
Wed 05:54:41 PM 40.7539 -77.3078 278° West 434 499 31,400 1,200 Climbing New York Center
Wed 05:55:41 PM 40.7731 -77.4494 280° West 434 499 32,400 1,400 Climbing New York Center
Wed 05:56:41 PM 40.7908 -77.6128 278° West 439 505 34,200 1,789 Climbing New York Center
Wed 05:58:32 PM 40.8239 -77.9067 279° West 451 519 37,500 1,595 Climbing Cleveland Center
Wed 05:59:34 PM 40.8425 -78.0689 279° West 452 520 38,800 1,016 Climbing Cleveland Center
Wed 06:00:36 PM 40.8614 -78.2411 278° West 457 526 39,600 581 Climbing Cleveland Center
Wed 06:01:38 PM 40.8822 -78.4447 278° West 472 543 40,000 194 Climbing Cleveland Center
Wed 06:02:40 PM 40.9067 -78.6292 280° West 511 588 40,000  Level Cleveland Center
Wed 06:03:42 PM 40.9236 -78.8072 277° West 501 577 40,000  Level Cleveland Center
Wed 06:04:45 PM 40.9386 -78.9839 276° West 499 574 40,000  Level Cleveland Center
Wed 06:05:46 PM 40.9561 -79.1631 277° West 496 571 40,000  Level Cleveland Center
Wed 06:06:48 PM 40.9767 -79.3767 277° West 493 567 40,000  Level Cleveland Center
Wed 06:07:50 PM 40.9942 -79.5536 278° West 491 565 40,000  Level Cleveland Center
Wed 06:08:52 PM 41.0117 -79.7322 277° West 493 567 40,000  Level Cleveland Center
Wed 06:09:54 PM 41.0283 -79.9094 277° West 492 566 40,000  Level Cleveland Center
Wed 06:10:56 PM 41.0456 -80.0878 277° West 493 567 40,000  Level Cleveland Center
Wed 06:11:59 PM 41.0639 -80.3019 277° West 494 568 40,000  Level Cleveland Center
Wed 06:13:01 PM 41.0800 -80.4789 277° West 490 564 40,000  Level Cleveland Center
Wed 06:14:03 PM 41.0958 -80.6569 277° West 491 565 40,000  Level Cleveland Center
Wed 06:15:05 PM 41.1114 -80.8342 277° West 488 562 40,000  Level Cleveland Center
Wed 06:16:07 PM 41.1261 -81.0119 276° West 489 563 40,000  Level Cleveland Center
Wed 06:17:09 PM 41.1433 -81.2244 276° West 492 566 40,000  Level Cleveland Center
Wed 06:18:11 PM 41.1575 -81.4067 276° West 490 564 40,000  Level Cleveland Center
Wed 06:19:13 PM 41.1717 -81.5881 276° West 494 568 40,000  Level Cleveland Center
Wed 06:20:15 PM 41.1847 -81.7686 276° West 494 568 40,000  Level Cleveland Center
Wed 06:21:17 PM 41.1994 -81.9497 276° West 494 568 40,000  Level Cleveland Center
Wed 06:22:19 PM 41.2144 -82.1489 276° West 494 568 40,000  Level Cleveland Center
Wed 06:23:21 PM 41.2283 -82.3319 276° West 494 568 40,000  Level Cleveland Center
Wed 06:24:23 PM 41.2417 -82.5142 276° West 491 565 40,000  Level Cleveland Center
Wed 06:25:25 PM 41.2542 -82.6953 275° West 489 563 40,000  Level Cleveland Center
Wed 06:26:27 PM 41.2683 -82.9058 275° West 487 560 40,000  Level Cleveland Center
Wed 06:27:30 PM 41.2803 -83.0858 275° West 486 559 40,000  Level Cleveland Center
Wed 06:28:32 PM 41.2917 -83.2628 275° West 484 557 40,000  Level Cleveland Center
Wed 06:29:34 PM 41.3031 -83.4419 275° West 485 558 40,000  Level Cleveland Center
Wed 06:30:36 PM 41.3136 -83.6214 275° West 486 559 40,000  Level Cleveland Center
Wed 06:31:38 PM 41.3239 -83.8019 274° West 488 562 40,000  Level Cleveland Center
Wed 06:32:35 PM 41.3356 -83.9714 275° West 487 560 40,000  Level Chicago Center
Wed 06:33:37 PM 41.3458 -84.1511 274° West 487 560 40,000  Level Chicago Center
Wed 06:34:39 PM 41.3569 -84.3669 274° West 489 563 40,000  Level Chicago Center
Wed 06:35:41 PM 41.3664 -84.5447 274° West 485 558 40,000  Level Chicago Center
Wed 06:36:43 PM 41.3756 -84.7222 274° West 481 554 40,000  Level Chicago Center
Wed 06:37:45 PM 41.3842 -84.8983 274° West 478 550 40,000  Level Chicago Center
Wed 06:38:47 PM 41.3928 -85.0761 274° West 479 551 40,000  Level Chicago Center
Wed 06:39:50 PM 41.3997 -85.2528 273° West 475 547 40,000  Level Chicago Center
Wed 06:40:52 PM 41.4083 -85.4342 274° West 481 554 40,000  Level Chicago Center
Wed 06:41:54 PM 41.4178 -85.6508 273° West 482 555 40,000  Level Chicago Center
Wed 06:42:56 PM 41.4253 -85.8311 273° West 483 556 40,000  Level Chicago Center
Wed 06:43:58 PM 41.4331 -86.0092 273° West 482 555 40,000  Level Chicago Center
Wed 06:45:00 PM 41.4400 -86.1878 273° West 480 552 40,000  Level Chicago Center
Wed 06:46:02 PM 41.4467 -86.3672 273° West 485 558 40,000  Level Chicago Center
Wed 06:47:04 PM 41.4531 -86.5489 273° West 490 564 40,000  Level Chicago Center
Wed 06:48:06 PM 41.4597 -86.7617 272° West 491 565 40,000 240 Level Chicago Center
Wed 06:49:09 PM 41.4664 -86.9389 273° West 483 556 40,500 480 Climbing Chicago Center
Wed 06:50:11 PM 41.4719 -87.1178 272° West 483 556 41,000 435 Climbing Chicago Center
Wed 06:51:13 PM 41.4761 -87.2947 272° West 481 554 41,400 435 Climbing Chicago Center
Wed 06:52:15 PM 41.4825 -87.4717 273° West 479 551 41,900 581 Climbing Chicago Center
Wed 06:53:17 PM 41.4875 -87.6786 272° West 469 540 42,600 532 Climbing Chicago Center
Wed 06:54:19 PM 41.4911 -87.8486 272° West 465 535 43,000 194 Climbing Chicago Center
Wed 06:55:21 PM 41.4944 -88.0128 272° West 469 540 43,000  Level Chicago Center
Wed 06:56:23 PM 41.4989 -88.2169 272° West 470 541 43,000  Level Chicago Center
Wed 06:57:26 PM 41.5036 -88.3875 272° West 467 537 43,000  Level Chicago Center
Wed 06:58:27 PM 41.5058 -88.5586 271° West 467 537 43,000  Level Chicago Center
Wed 06:59:30 PM 41.5092 -88.7289 272° West 463 533 43,000  Level Chicago Center
Wed 07:00:32 PM 41.5114 -88.9000 271° West 465 535 43,000  Level Chicago Center
Wed 07:01:34 PM 41.5136 -89.1033 271° West 461 531 43,000  Level Chicago Center
Wed 07:02:36 PM 41.5169 -89.2856 271° West 468 539 43,000  Level Chicago Center
Wed 07:03:38 PM 41.5192 -89.4586 271° West 468 539 43,000  Level Chicago Center
Wed 07:04:40 PM 41.5206 -89.6317 271° West 470 541 43,000  Level Chicago Center
Wed 07:05:42 PM 41.5222 -89.8044 271° West 470 541 43,000  Level Chicago Center
Wed 07:06:44 PM 41.5231 -89.9769 270° West 469 540 43,000  Level Chicago Center
Wed 07:07:46 PM 41.5244 -90.1497 271° West 469 540 43,000  Level Chicago Center
Wed 07:08:49 PM 41.5253 -90.3569 270° West 469 540 43,000  Level Chicago Center
Wed 07:09:51 PM 41.5261 -90.5311 270° West 471 542 43,000  Level Chicago Center
Wed 07:10:53 PM 41.5256 -90.7069 270° West 475 547 43,000  Level Chicago Center
Wed 07:11:55 PM 41.5231 -90.8972 269° West 475 547 43,000  Level Chicago Center
Wed 07:12:57 PM 41.5222 -91.0694 270° West 469 540 43,000  Level Chicago Center
Wed 07:13:59 PM 41.5214 -91.2419 270° West 468 539 43,000  Level Chicago Center
Wed 07:15:01 PM 41.5203 -91.4144 270° West 469 540 43,000 -97 Level Chicago Center
Wed 07:16:03 PM 41.5183 -91.6231 269° West 471 542 42,800 -194 Descending Chicago Center
Wed 07:17:05 PM 41.5131 -91.7972 268° West 472 543 42,600 -242 Descending Chicago Center
Wed 07:18:07 PM 41.5067 -91.9664 267° West 463 533 42,300 -432 Descending Chicago Center
Wed 07:19:10 PM 41.5022 -92.1364 268° West 462 532 41,700 -672 Descending Chicago Center
Wed 07:20:12 PM 41.4944 -92.3092 267° West 468 539 40,900 -726 Descending Chicago Center
Wed 07:21:14 PM 41.4875 -92.4975 267° West 481 554 40,200 -435 Descending Chicago Center
Wed 07:22:16 PM 41.4803 -92.6761 267° West 488 562 40,000 -130 Descending Chicago Center
Wed 07:22:46 PM 41.4764 -92.7831 267° West 485 558 40,000  Level Minneapolis Center
Wed 07:23:48 PM 41.4683 -92.9597 267° West 485 558 40,000  Level Minneapolis Center
Wed 07:24:50 PM 41.4614 -93.1328 267° West 478 550 40,000 -532 Level Minneapolis Center
Wed 07:25:52 PM 41.4525 -93.3386 267° West 472 543 38,900 -871 Descending Minneapolis Center
Wed 07:26:54 PM 41.4439 -93.5108 266° West 471 542 38,200 -528 Descending Minneapolis Center
Wed 07:27:57 PM 41.4400 -93.6747 268° West 458 527 37,800 -912 Descending Minneapolis Center
Wed 07:28:59 PM 41.4489 -93.8444 274° West 462 532 36,300 -1,258 Descending Minneapolis Center
Wed 07:30:01 PM 41.4608 -94.0550 274° West 476 548 35,200 -968 Descending Minneapolis Center
Wed 07:31:03 PM 41.4692 -94.2286 274° West 475 547 34,300 -1,887 Descending Minneapolis Center
Wed 07:32:05 PM 41.4781 -94.4231 274° West 488 562 31,300 -2,952 Descending Minneapolis Center
Wed 07:33:07 PM 41.4881 -94.6064 274° West 495 570 28,200 -3,339 Descending Minneapolis Center
Wed 07:34:09 PM 41.4961 -94.7814 274° West 475 547 24,400 -3,677 Descending Minneapolis Center
Wed 07:35:11 PM 41.5047 -94.9481 274° West 455 524 20,600 -3,687 Descending Minneapolis Center
Wed 07:35:32 PM 41.5192 -95.0244 284° West 433 498 19,300 -2,323 Descending Minneapolis Center
Wed 07:36:13 PM 41.5108 -95.1031 262° West 426 490 18,200 -2,097 Descending Minneapolis Center
Wed 07:37:15 PM 41.4978 -95.2456 263° West 392 451 15,700 -2,710 Descending Minneapolis Center
Wed 07:38:17 PM 41.4650 -95.4058 255° West 376 433 12,600 -2,400 Descending Minneapolis Center
Wed 07:39:10 PM 41.4475 -95.5181 258° West 308 354 11,100 -1,524 Descending Minneapolis Center
Wed 07:39:20 PM 41.4419 -95.5200 195° South 340 391 11,000 -1,417 Descending Minneapolis Center
Wed 07:40:22 PM 41.4222 -95.6228 256° West 313 360 9,400 -1,831 Descending Minneapolis Center
Wed 07:41:18 PM 41.4222 -95.7269 270° West 267 307 7,400 -1,935 Descending Minneapolis Center
Wed 07:41:24 PM 41.4203 -95.7194 109° East 282 325 7,400 -2,091 Level Minneapolis Center
Wed 07:42:24 PM 41.4211 -95.8383 271° West 266 306 5,100 -1,935 Descending Minneapolis Center
Wed 07:42:26 PM 41.4192 -95.8183 97° East 272 313 5,400 -787 Climbing Minneapolis Center
Wed 07:43:25 PM 41.4356 -95.9283 281° West 238 274 4,300 -1,161 Descending Minneapolis Center
Wed 07:43:28 PM 41.4336 -95.9247 126° Southeast 254 292 4,200 -984 Descending Minneapolis Center
Wed 07:44:26 PM 41.3983 -95.9686 223° Southwest 163 188 3,300 -968 Descending Minneapolis Center
Wed 07:44:30 PM 41.3958 -95.9617 116° Southeast 203 234 3,200 -1,200 Descending Minneapolis Center
Wed 07:45:26 PM 41.3572 -95.9483 165° South 142 163 2,100 -1,161 Descending Minneapolis Center
Wed 07:45:32 PM 41.3550 -95.9411 112° Southeast 173 199 2,000 -787 Descending Minneapolis Center
Wed 07:46:27 PM 41.3258 -95.9161 147° Southeast 130 150 1,300 -677 Descending Minneapolis Center
Wed 07:46:34 PM 41.3247 -95.9103 104° East 150 173 1,300 -261 Level Minneapolis Center
Wed 07:47:36 PM 41.2964 -95.8839 145° Southeast 145 167 1,000 -290 Descending Minneapolis Center
Wed 07:49:00 PM 41.3000 -95.8833 North  Level FlightAware Approximate

Login

Don't have an account? Register now (free) for customized features, flight alerts, and more!